Time;durP1;ratioP1;P1;durP2;ratioP2;P2;SDS_P1;SDS_P2;PMS_P1;PMS_P2;Temp;Humidity;BMP_temperature;BMP_pressure;BME280_temperature;BME280_humidity;BME280_pressure;Samples;Min_cycle;Max_cycle;Signal;HPM_P1;HPM_P2
2023/07/07 00:00:35;;;;;;;16.70;13.20;;;;;;;18.89;100.00;100735.92;109272;1243;74301;-69
2023/07/07 00:03:24;;;;;;;19.00;14.70;;;;;;;18.76;100.00;100740.27;109351;1244;57957;-69
2023/07/07 00:05:53;;;;;;;21.30;13.90;;;;;;;18.74;100.00;100739.39;109470;1244;57722;-69
2023/07/07 00:08:22;;;;;;;18.80;14.70;;;;;;;18.83;100.00;100738.51;109575;1244;73492;-69
2023/07/07 00:10:51;;;;;;;18.40;14.80;;;;;;;18.85;100.00;100742.11;109573;1243;72217;-69
2023/07/07 00:13:20;;;;;;;23.20;15.60;;;;;;;18.80;100.00;100744.05;109593;1242;70597;-69
2023/07/07 00:15:49;;;;;;;21.40;15.30;;;;;;;18.76;100.00;100742.59;109453;1244;74073;-70
2023/07/07 00:18:27;;;;;;;18.50;14.30;;;;;;;18.74;100.00;100736.96;109593;1242;62600;-69
2023/07/07 00:20:59;;;;;;;21.30;15.20;;;;;;;18.69;100.00;100737.88;109506;1243;57296;-69
2023/07/07 00:23:32;;;;;;;18.80;14.40;;;;;;;18.65;100.00;100740.76;109551;1242;73459;-67
2023/07/07 00:26:07;;;;;;;20.20;15.00;;;;;;;18.56;100.00;100741.33;109378;1245;62056;-68
2023/07/07 00:28:36;;;;;;;18.80;14.20;;;;;;;18.47;100.00;100741.02;109579;1243;60029;-68
2023/07/07 00:31:05;;;;;;;19.10;14.80;;;;;;;18.38;100.00;100735.80;109620;1244;62465;-68
2023/07/07 00:33:34;;;;;;;16.50;14.10;;;;;;;18.29;100.00;100741.16;109511;1242;61999;-70
2023/07/07 00:36:03;;;;;;;19.70;14.70;;;;;;;18.21;100.00;100736.48;109604;1243;60705;-70
2023/07/07 00:38:31;;;;;;;19.80;15.10;;;;;;;18.20;100.00;100736.83;109475;1244;74106;-69
2023/07/07 00:41:04;;;;;;;20.80;14.10;;;;;;;18.15;100.00;100736.67;109384;1243;62576;-69
2023/07/07 00:43:35;;;;;;;22.80;14.60;;;;;;;18.07;100.00;100736.02;109432;1244;59800;-68
2023/07/07 00:46:04;;;;;;;19.80;14.30;;;;;;;18.04;100.00;100738.79;109303;1244;65129;-68
2023/07/07 00:48:44;;;;;;;19.70;14.70;;;;;;;17.99;100.00;100748.01;109324;1245;57652;-68
2023/07/07 00:51:29;;;;;;;22.40;16.20;;;;;;;17.99;100.00;100754.02;109571;1242;60382;-68
2023/07/07 00:53:59;;;;;;;22.90;16.40;;;;;;;18.00;100.00;100758.27;109595;1243;72851;-68
2023/07/07 00:56:37;;;;;;;20.50;16.50;;;;;;;18.05;100.00;100762.23;109412;1243;72448;-68
2023/07/07 00:59:20;;;;;;;25.30;18.60;;;;;;;18.04;100.00;100762.98;109569;1243;60654;-68
2023/07/07 01:01:54;;;;;;;29.90;18.60;;;;;;;18.06;100.00;100764.55;109358;1243;73064;-68
2023/07/07 01:04:24;;;;;;;24.80;18.20;;;;;;;18.08;100.00;100765.23;109254;1245;57689;-68
2023/07/07 01:07:01;;;;;;;27.90;19.50;;;;;;;18.10;100.00;100769.02;109348;1245;57216;-69
2023/07/07 01:09:29;;;;;;;27.10;18.90;;;;;;;18.11;100.00;100771.42;109521;1243;72584;-69
2023/07/07 01:11:59;;;;;;;24.30;18.20;;;;;;;18.12;100.00;100769.21;109608;1244;61549;-69
2023/07/07 01:14:30;;;;;;;26.60;20.00;;;;;;;18.23;100.00;100764.01;109650;1243;70477;-69
2023/07/07 01:17:28;;;;;;;25.50;18.60;;;;;;;18.36;100.00;100763.36;109583;1241;62946;-68
2023/07/07 01:20:13;;;;;;;28.00;20.40;;;;;;;18.46;100.00;100758.17;109695;1244;61445;-68
2023/07/07 01:23:21;;;;;;;24.30;18.20;;;;;;;18.45;100.00;100755.48;109622;1241;60713;-68
2023/07/07 01:25:56;;;;;;;23.40;18.70;;;;;;;18.41;100.00;100752.80;109776;1241;72653;-69
2023/07/07 01:28:38;;;;;;;28.40;18.30;;;;;;;18.36;100.00;100755.78;109740;1241;71883;-70
2023/07/07 01:31:33;;;;;;;24.60;18.10;;;;;;;18.46;100.00;100756.09;109678;1244;59683;-70
2023/07/07 01:34:03;;;;;;;23.50;18.50;;;;;;;18.52;100.00;100759.02;109741;1242;71781;-70
2023/07/07 01:36:33;;;;;;;21.20;17.50;;;;;;;18.59;100.00;100754.54;109570;1245;57758;-70
2023/07/07 01:39:03;;;;;;;27.00;18.40;;;;;;;18.61;100.00;100756.09;109648;1241;59324;-70
2023/07/07 01:42:04;;;;;;;26.20;19.40;;;;;;;18.69;100.00;100756.23;109632;1245;63297;-70
2023/07/07 01:44:57;;;;;;;22.70;18.40;;;;;;;18.69;100.00;100759.18;109698;1241;61452;-70
2023/07/07 01:47:34;;;;;;;24.50;17.70;;;;;;;18.60;100.00;100762.73;109564;1246;60029;-69
2023/07/07 01:50:32;;;;;;;21.80;17.00;;;;;;;18.67;100.00;100758.19;109648;1241;72862;-70
2023/07/07 01:53:11;;;;;;;25.60;17.90;;;;;;;18.64;100.00;100763.60;109676;1242;63202;-70
2023/07/07 01:55:51;;;;;;;27.10;18.30;;;;;;;18.59;100.00;100765.31;109551;1242;60653;-69
2023/07/07 01:58:22;;;;;;;22.40;17.40;;;;;;;18.53;100.00;100765.77;109422;1243;62725;-69
2023/07/07 02:00:53;;;;;;;26.60;19.30;;;;;;;18.44;100.00;100766.16;109377;1242;71663;-70
2023/07/07 02:03:23;;;;;;;25.60;18.50;;;;;;;18.39;100.00;100766.77;109467;1243;71628;-69
2023/07/07 02:05:51;;;;;;;23.90;18.20;;;;;;;18.35;100.00;100769.11;109498;1244;74114;-69
2023/07/07 02:08:21;;;;;;;30.20;19.30;;;;;;;18.34;100.00;100767.48;109562;1245;57663;-70
2023/07/07 02:10:49;;;;;;;25.40;19.30;;;;;;;18.41;100.00;100764.64;109603;1245;60148;-70
2023/07/07 02:13:18;;;;;;;25.30;20.00;;;;;;;18.45;100.00;100767.02;109571;1245;62770;-70
2023/07/07 02:15:47;;;;;;;25.90;19.70;;;;;;;18.42;100.00;100769.39;109655;1244;61495;-70
2023/07/07 02:18:16;;;;;;;30.00;20.00;;;;;;;18.44;100.00;100767.29;109594;1244;70875;-70
2023/07/07 02:20:45;;;;;;;29.70;20.80;;;;;;;18.44;100.00;100764.25;109420;1245;74198;-70
2023/07/07 02:23:14;;;;;;;26.40;19.80;;;;;;;18.47;100.00;100767.52;109460;1245;58061;-70
2023/07/07 02:25:43;;;;;;;29.00;20.50;;;;;;;18.47;100.00;100769.64;109498;1244;61090;-68
2023/07/07 02:28:11;;;;;;;27.20;20.50;;;;;;;18.41;100.00;100765.98;109613;1243;73893;-69
2023/07/07 02:30:40;;;;;;;30.40;20.50;;;;;;;18.36;100.00;100759.29;109478;1245;62059;-69
2023/07/07 02:33:09;;;;;;;32.30;20.40;;;;;;;18.33;100.00;100767.91;109582;1244;69964;-69
2023/07/07 02:35:39;;;;;;;25.60;19.10;;;;;;;18.31;100.00;100772.39;109614;1243;73446;-69
2023/07/07 02:38:08;;;;;;;30.20;20.90;;;;;;;18.31;100.00;100777.45;109390;1245;57765;-69
2023/07/07 02:40:38;;;;;;;30.30;19.80;;;;;;;18.29;100.00;100773.45;109600;1243;57421;-70
2023/07/07 02:43:06;;;;;;;30.30;19.20;;;;;;;18.26;100.00;100771.09;109511;1244;73355;-70
2023/07/07 02:45:35;;;;;;;29.00;20.10;;;;;;;18.24;100.00;100778.19;109637;1244;61040;-69
2023/07/07 02:48:04;;;;;;;27.10;20.50;;;;;;;18.23;100.00;100777.38;109620;1244;60985;-69
2023/07/07 02:50:33;;;;;;;32.80;22.60;;;;;;;18.21;100.00;100780.56;109489;1243;73671;-70
2023/07/07 02:53:02;;;;;;;28.50;22.30;;;;;;;18.32;100.00;100784.94;109595;1244;57743;-69
2023/07/07 02:55:31;;;;;;;27.80;21.90;;;;;;;18.38;100.00;100791.36;109575;1245;57673;-68
2023/07/07 02:58:01;;;;;;;32.60;22.40;;;;;;;18.41;100.00;100787.87;109408;1243;73462;-68
2023/07/07 03:00:30;;;;;;;32.30;22.50;;;;;;;18.47;100.00;100779.92;109678;1244;61488;-68
2023/07/07 03:02:58;;;;;;;33.10;23.30;;;;;;;18.68;100.00;100787.39;109592;1243;70301;-69
2023/07/07 03:05:27;;;;;;;29.60;20.50;;;;;;;18.76;100.00;100791.05;109583;1242;64526;-67
2023/07/07 03:07:57;;;;;;;27.30;18.70;;;;;;;18.77;100.00;100789.39;109516;1243;57696;-68
2023/07/07 03:10:26;;;;;;;31.40;19.80;;;;;;;18.76;100.00;100794.96;109420;1243;60164;-68
2023/07/07 03:12:54;;;;;;;30.50;19.90;;;;;;;18.73;100.00;100799.67;109447;1243;73365;-68
2023/07/07 03:15:26;;;;;;;27.50;19.70;;;;;;;18.79;100.00;100807.20;109564;1245;72221;-68
2023/07/07 03:17:55;;;;;;;26.30;19.90;;;;;;;18.86;100.00;100808.57;109653;1241;60399;-68
2023/07/07 03:20:26;;;;;;;29.90;19.30;;;;;;;18.91;100.00;100804.48;109617;1244;64812;-68
2023/07/07 03:22:56;;;;;;;28.90;18.30;;;;;;;18.94;100.00;100803.50;109521;1245;61871;-67
2023/07/07 03:25:26;;;;;;;32.80;19.70;;;;;;;18.92;100.00;100806.00;109669;1241;60692;-69
2023/07/07 03:27:56;;;;;;;24.30;19.10;;;;;;;18.99;100.00;100808.21;109486;1241;63022;-68
2023/07/07 03:30:37;;;;;;;25.30;18.70;;;;;;;19.04;100.00;100807.52;109631;1241;60741;-68
2023/07/07 03:33:13;;;;;;;32.20;20.50;;;;;;;19.08;100.00;100809.98;109534;1241;69489;-68
2023/07/07 03:35:43;;;;;;;33.30;22.60;;;;;;;19.16;100.00;100802.23;109721;1241;73848;-68
2023/07/07 03:38:14;;;;;;;33.20;23.70;;;;;;;19.24;100.00;100802.16;109557;1244;57677;-69
2023/07/07 03:40:47;;;;;;;34.60;23.40;;;;;;;19.37;100.00;100802.06;109632;1241;57096;-68
2023/07/07 03:43:24;;;;;;;34.80;24.90;;;;;;;19.49;100.00;100806.77;109449;1241;63150;-68
2023/07/07 03:45:53;;;;;;;32.60;23.10;;;;;;;19.61;100.00;100802.97;109770;1241;61433;-68
2023/07/07 03:48:23;;;;;;;30.60;20.80;;;;;;;19.75;100.00;100800.21;109673;1241;71371;-70
2023/07/07 03:51:03;;;;;;;27.60;17.20;;;;;;;19.84;100.00;100803.45;109660;1241;74133;-64
2023/07/07 03:53:32;;;;;;;21.70;17.20;;;;;;;19.90;100.00;100803.55;109607;1244;57649;-66
2023/07/07 03:56:03;;;;;;;20.60;17.20;;;;;;;19.90;100.00;100797.47;109464;1241;59588;-67
2023/07/07 03:58:33;;;;;;;22.90;17.40;;;;;;;20.00;100.00;100798.67;109422;1241;63417;-67
2023/07/07 04:01:09;;;;;;;23.60;17.50;;;;;;;20.07;100.00;100800.57;109504;1241;70568;-68
2023/07/07 04:03:38;;;;;;;22.50;16.50;;;;;;;20.17;100.00;100799.48;109624;1241;71920;-65
2023/07/07 04:06:10;;;;;;;24.20;17.60;;;;;;;20.19;100.00;100797.58;110358;1235;63553;-66
2023/07/07 04:08:39;;;;;;;20.70;15.70;;;;;;;20.27;100.00;100797.26;110247;1237;62704;-64
2023/07/07 04:11:15;;;;;;;20.50;16.20;;;;;;;20.27;100.00;100794.98;110293;1234;61330;-69
2023/07/07 04:13:48;;;;;;;23.00;16.70;;;;;;;20.36;100.00;100799.02;110226;1234;74480;-66
2023/07/07 04:16:20;;;;;;;;;;;;;;;20.43;100.00;100795.60;110162;1234;60727;-64
2023/07/07 04:18:52;;;;;;;21.10;17.10;;;;;;;20.33;100.00;100799.35;110292;1233;59387;-65
2023/07/07 04:21:27;;;;;;;22.20;17.10;;;;;;;20.46;100.00;100795.50;110026;1234;62390;-67
2023/07/07 04:24:00;;;;;;;19.80;15.90;;;;;;;20.61;100.00;100799.59;110011;1238;62781;-64
2023/07/07 04:26:30;;;;;;;20.90;16.70;;;;;;;20.70;100.00;100799.01;110019;1238;60992;-63
2023/07/07 04:29:00;;;;;;;19.50;14.90;;;;;;;20.75;100.00;100799.84;110161;1234;64603;-64
2023/07/07 04:31:30;;;;;;;23.50;15.20;;;;;;;20.78;100.00;100800.35;110150;1234;60806;-73
2023/07/07 04:33:59;;;;;;;20.70;14.80;;;;;;;20.90;100.00;100799.89;110271;1235;69502;-71
2023/07/07 04:36:28;;;;;;;18.50;14.40;;;;;;;20.84;100.00;100799.61;110541;1235;63130;-72
2023/07/07 04:38:58;;;;;;;15.90;13.40;;;;;;;20.97;100.00;100796.59;110272;1236;57623;-72
2023/07/07 04:41:27;;;;;;;13.60;11.90;;;;;;;21.04;100.00;100796.54;110401;1235;60417;-70
2023/07/07 04:43:59;;;;;;;14.80;12.10;;;;;;;21.12;100.00;100796.64;110459;1233;73285;-70
2023/07/07 04:46:39;;;;;;;18.70;12.90;;;;;;;21.23;100.00;100801.95;110097;1233;61958;-75
2023/07/07 04:49:08;;;;;;;15.80;12.50;;;;;;;21.30;100.00;100798.82;110321;1238;71575;-69
2023/07/07 04:51:41;;;;;;;14.60;11.60;;;;;;;21.39;100.00;100800.38;110417;1234;63493;-72
2023/07/07 04:54:13;;;;;;;15.60;11.30;;;;;;;21.52;100.00;100804.68;110588;1233;62106;-69
2023/07/07 04:56:44;;;;;;;17.00;12.10;;;;;;;21.59;100.00;100814.23;110572;1234;57738;-69
2023/07/07 04:59:13;;;;;;;15.70;11.60;;;;;;;21.67;100.00;100815.95;110544;1235;72984;-70
2023/07/07 05:01:44;;;;;;;16.90;12.20;;;;;;;21.68;100.00;100816.55;110404;1234;61031;-68
2023/07/07 05:04:13;;;;;;;16.10;12.20;;;;;;;21.83;100.00;100814.19;110183;1234;61479;-69
2023/07/07 05:06:42;;;;;;;16.80;11.20;;;;;;;21.95;100.00;100812.61;110574;1233;74009;-69
2023/07/07 05:09:12;;;;;;;15.60;10.90;;;;;;;22.04;100.00;100816.67;110609;1232;57774;-70
2023/07/07 05:11:42;;;;;;;14.10;10.20;;;;;;;22.18;100.00;100821.53;110485;1233;57701;-70
2023/07/07 05:14:11;;;;;;;20.70;9.80;;;;;;;22.30;100.00;100815.88;110598;1234;62152;-69
2023/07/07 05:16:40;;;;;;;15.20;10.20;;;;;;;22.41;100.00;100810.80;110460;1232;61596;-69
2023/07/07 05:19:10;;;;;;;12.80;10.30;;;;;;;22.50;100.00;100811.29;110567;1233;59206;-69
2023/07/07 05:21:39;;;;;;;12.30;9.60;;;;;;;22.65;100.00;100811.92;110411;1233;74134;-70
2023/07/07 05:24:08;;;;;;;13.10;10.20;;;;;;;22.83;100.00;100807.80;110585;1234;57587;-71
2023/07/07 05:26:37;;;;;;;12.90;9.60;;;;;;;23.02;100.00;100813.45;110594;1233;57658;-69
2023/07/07 05:29:06;;;;;;;15.60;12.80;;;;;;;23.16;100.00;100816.51;110440;1235;72687;-67
2023/07/07 05:31:35;;;;;;;17.00;13.50;;;;;;;23.15;100.00;100817.55;110437;1233;61916;-80
2023/07/07 05:34:04;;;;;;;18.70;13.10;;;;;;;23.26;100.00;100812.45;110190;1233;70299;-69
2023/07/07 05:36:33;;;;;;;18.20;13.30;;;;;;;23.38;100.00;100818.67;110557;1233;63518;-72
2023/07/07 05:39:04;;;;;;;17.20;12.00;;;;;;;23.25;100.00;100817.86;110437;1232;57717;-70
2023/07/07 05:41:33;;;;;;;15.40;12.50;;;;;;;23.20;100.00;100819.93;110225;1233;57250;-71
2023/07/07 05:44:02;;;;;;;17.90;12.50;;;;;;;23.03;100.00;100826.59;110389;1235;71705;-70
2023/07/07 05:46:30;;;;;;;16.60;12.10;;;;;;;23.05;100.00;100823.45;110350;1233;71817;-70
2023/07/07 05:48:59;;;;;;;16.40;13.20;;;;;;;23.00;100.00;100824.21;110553;1233;60259;-70
2023/07/07 05:51:28;;;;;;;21.70;13.10;;;;;;;22.95;100.00;100827.11;110510;1232;62273;-70
2023/07/07 05:53:57;;;;;;;16.30;12.00;;;;;;;22.81;100.00;100827.79;110523;1232;62634;-71
2023/07/07 05:56:26;;;;;;;15.00;12.30;;;;;;;22.72;100.00;100819.78;110518;1234;61402;-70
2023/07/07 05:58:55;;;;;;;17.30;12.60;;;;;;;22.70;100.00;100824.86;110392;1234;73426;-70
2023/07/07 06:01:25;;;;;;;16.40;13.40;;;;;;;22.64;100.00;100821.08;110376;1233;61236;-70
2023/07/07 06:03:54;;;;;;;20.60;13.20;;;;;;;22.57;100.00;100820.89;110403;1233;59994;-70
2023/07/07 06:06:23;;;;;;;15.70;12.90;;;;;;;22.49;100.00;100818.16;110095;1238;62318;-70
2023/07/07 06:08:52;;;;;;;14.50;12.00;;;;;;;22.51;100.00;100812.77;110448;1233;62736;-70
2023/07/07 06:11:20;;;;;;;18.20;13.80;;;;;;;22.60;100.00;100811.36;110360;1232;60672;-71
2023/07/07 06:13:49;;;;;;;13.80;12.00;;;;;;;22.53;100.00;100821.20;110525;1233;63527;-70
2023/07/07 06:16:19;;;;;;;22.80;11.80;;;;;;;22.63;100.00;100815.04;110259;1234;71467;-69
2023/07/07 06:18:48;;;;;;;14.60;11.50;;;;;;;22.72;100.00;100818.31;110578;1233;70169;-70
2023/07/07 06:21:16;;;;;;;17.30;11.10;;;;;;;22.96;100.00;100819.34;110591;1233;73450;-72
2023/07/07 06:23:45;;;;;;;12.40;10.40;;;;;;;23.07;100.00;100817.31;110585;1232;57743;-71
2023/07/07 06:26:14;;;;;;;14.10;10.40;;;;;;;23.13;100.00;100822.09;110581;1233;58988;-71
2023/07/07 06:28:42;;;;;;;14.00;10.30;;;;;;;23.05;100.00;100824.44;110540;1233;74524;-71
2023/07/07 06:31:11;;;;;;;17.70;10.40;;;;;;;22.84;100.00;100827.70;110419;1233;62016;-71
2023/07/07 06:33:42;;;;;;;12.20;9.40;;;;;;;22.85;100.00;100827.08;110467;1233;59758;-70
2023/07/07 06:36:11;;;;;;;15.60;11.20;;;;;;;22.89;100.00;100828.92;110400;1236;73905;-70
2023/07/07 06:38:40;;;;;;;14.00;10.00;;;;;;;23.14;100.00;100829.05;110537;1234;63485;-70
2023/07/07 06:41:21;;;;;;;16.90;10.40;;;;;;;23.49;100.00;100827.86;110549;1233;57190;-72
2023/07/07 06:43:50;;;;;;;11.00;8.80;;;;;;;23.64;100.00;100829.04;110391;1233;71678;-71
2023/07/07 06:46:24;;;;;;;13.10;9.20;;;;;;;23.90;100.00;100830.30;110390;1233;71560;-71
2023/07/07 06:48:53;;;;;;;12.00;9.80;;;;;;;24.01;100.00;100831.02;110435;1235;60392;-70
2023/07/07 06:51:22;;;;;;;13.20;9.40;;;;;;;23.79;100.00;100838.87;110248;1233;63276;-70
2023/07/07 06:53:51;;;;;;;14.60;9.50;;;;;;;23.39;100.00;100833.31;110505;1234;57755;-71
2023/07/07 06:56:20;;;;;;;14.30;8.90;;;;;;;23.08;100.00;100843.77;110499;1233;57991;-70
2023/07/07 06:58:49;;;;;;;12.70;9.30;;;;;;;23.04;100.00;100846.99;110488;1233;62733;-70
2023/07/07 07:01:18;;;;;;;15.40;10.20;;;;;;;22.98;100.00;100851.80;110383;1235;61422;-71
2023/07/07 07:03:47;;;;;;;12.20;9.50;;;;;;;22.93;100.00;100849.02;110363;1234;70791;-71
2023/07/07 07:06:16;;;;;;;12.40;8.70;;;;;;;22.75;100.00;100851.15;110202;1234;73307;-71
2023/07/07 07:08:44;;;;;;;13.40;9.50;;;;;;;22.77;100.00;100851.17;110225;1233;63425;-70
2023/07/07 07:11:16;;;;;;;10.70;8.80;;;;;;;22.79;100.00;100848.91;110318;1233;57220;-71
2023/07/07 07:13:45;;;;;;;12.70;9.30;;;;;;;22.69;100.00;100853.58;110341;1235;62956;-71
2023/07/07 07:16:14;;;;;;;9.80;8.10;;;;;;;22.64;100.00;100863.71;110195;1234;60948;-79
2023/07/07 07:18:43;;;;;;;12.20;8.20;;;;;;;22.70;100.00;100866.83;110242;1235;59977;-70
2023/07/07 07:21:12;;;;;;;10.90;8.00;;;;;;;22.48;100.00;100866.91;110216;1235;72850;-71
2023/07/07 07:23:40;;;;;;;10.70;8.50;;;;;;;22.31;100.00;100872.29;110342;1233;63401;-70
2023/07/07 07:26:10;;;;;;;11.20;8.40;;;;;;;22.34;100.00;100866.48;110323;1234;61228;-71
2023/07/07 07:28:38;;;;;;;13.20;8.30;;;;;;;22.35;100.00;100869.33;110436;1233;72879;-71
2023/07/07 07:31:07;;;;;;;11.30;8.70;;;;;;;22.34;100.00;100873.39;110172;1234;72891;-72
2023/07/07 07:33:37;;;;;;;10.40;8.40;;;;;;;22.29;100.00;100872.75;110316;1235;71488;-71
2023/07/07 07:36:05;;;;;;;9.00;7.20;;;;;;;22.25;100.00;100876.76;110444;1234;74087;-69
2023/07/07 07:38:34;;;;;;;10.90;7.80;;;;;;;22.28;100.00;100878.17;110442;1235;57342;-71
2023/07/07 07:41:03;;;;;;;9.00;8.10;;;;;;;22.25;100.00;100884.01;110474;1235;57227;-71
2023/07/07 07:43:32;;;;;;;10.60;8.10;;;;;;;22.36;100.00;100890.36;110466;1234;62981;-71
2023/07/07 07:46:00;;;;;;;8.40;6.80;;;;;;;22.36;100.00;100893.57;110437;1234;72160;-70
2023/07/07 07:48:29;;;;;;;8.90;6.40;;;;;;;22.36;100.00;100894.75;110425;1233;59380;-70
2023/07/07 07:50:58;;;;;;;9.20;6.50;;;;;;;22.33;100.00;100899.59;110452;1235;63192;-70
2023/07/07 07:53:27;;;;;;;8.90;6.40;;;;;;;22.31;100.00;100901.77;110510;1235;57969;-71
2023/07/07 07:55:57;;;;;;;10.70;6.70;;;;;;;22.38;100.00;100904.89;110499;1234;57732;-72
2023/07/07 07:58:26;;;;;;;8.80;6.10;;;;;;;22.37;100.00;100906.66;110489;1235;73190;-71
2023/07/07 08:00:55;;;;;;;8.60;6.30;;;;;;;22.29;100.00;100906.48;110333;1233;71806;-71
2023/07/07 08:03:24;;;;;;;7.60;6.30;;;;;;;22.11;100.00;100902.36;110124;1234;70841;-72
2023/07/07 08:05:53;;;;;;;9.20;6.40;;;;;;;22.07;100.00;100909.02;110373;1234;73526;-71
2023/07/07 08:08:22;;;;;;;9.90;6.80;;;;;;;22.17;100.00;100907.17;110413;1235;57120;-71
2023/07/07 08:10:51;;;;;;;8.20;6.30;;;;;;;22.20;100.00;100899.52;110372;1233;60698;-71
2023/07/07 08:13:38;;;;;;;11.10;6.70;;;;;;;22.27;100.00;100899.05;110493;1234;74113;-72
2023/07/07 08:16:11;;;;;;;10.00;6.60;;;;;;;22.26;100.00;100899.16;110137;1235;71155;-72
2023/07/07 08:18:40;;;;;;;7.70;6.50;;;;;;;22.39;100.00;100895.98;110324;1235;70317;-71
2023/07/07 08:21:10;;;;;;;9.00;6.40;;;;;;;22.50;100.00;100900.85;110088;1234;74195;-72
2023/07/07 08:23:39;;;;;;;8.00;5.60;;;;;;;22.54;100.00;100899.05;110083;1241;57252;-70
2023/07/07 08:26:08;;;;;;;9.70;5.40;;;;;;;22.52;100.00;100898.17;110309;1235;57990;-73
2023/07/07 08:28:40;;;;;;;9.30;6.30;;;;;;;22.51;100.00;100900.58;110534;1233;62975;-72
2023/07/07 08:31:20;;;;;;;6.80;5.50;;;;;;;22.59;100.00;100904.04;110497;1235;62942;-73
2023/07/07 08:33:50;;;;;;;8.10;5.40;;;;;;;22.73;100.00;100903.80;110180;1232;70581;-70
2023/07/07 08:36:22;;;;;;;11.30;6.20;;;;;;;22.89;100.00;100903.16;110290;1238;62684;-70
2023/07/07 08:38:51;;;;;;;6.10;5.40;;;;;;;23.05;100.00;100896.08;110524;1233;62829;-71
2023/07/07 08:41:20;;;;;;;7.40;6.00;;;;;;;23.25;100.00;100892.89;110518;1236;61349;-72
2023/07/07 08:43:49;;;;;;;6.90;6.10;;;;;;;23.28;100.00;100896.56;110405;1237;65361;-72
2023/07/07 08:46:47;;;;;;;6.50;5.90;;;;;;;23.55;100.00;100893.75;110419;1233;71618;-71
2023/07/07 08:50:04;;;;;;;6.20;5.50;;;;;;;23.64;100.00;100891.91;110390;1235;71064;-71
2023/07/07 08:53:08;;;;;;;7.20;6.00;;;;;;;23.75;100.00;100892.80;110379;1238;63107;-71
2023/07/07 08:56:06;;;;;;;7.30;6.10;;;;;;;23.72;100.00;100894.59;110459;1236;63086;-72
2023/07/07 08:58:34;;;;;;;6.00;5.40;;;;;;;23.68;100.00;100897.86;110487;1235;57204;-71
2023/07/07 09:01:48;;;;;;;8.70;5.80;;;;;;;23.49;100.00;100894.31;110527;1236;62975;-71
2023/07/07 09:04:26;;;;;;;7.70;6.10;;;;;;;23.66;100.00;100887.19;110191;1236;61741;-72
2023/07/07 09:07:20;;;;;;;6.00;5.30;;;;;;;23.83;100.00;100890.33;110414;1234;70511;-70
2023/07/07 09:10:05;;;;;;;8.60;5.60;;;;;;;23.64;100.00;100888.36;110468;1235;72999;-71
2023/07/07 09:12:46;;;;;;;5.90;5.30;;;;;;;23.67;100.00;100888.91;110382;1236;57611;-75
2023/07/07 09:15:30;;;;;;;6.80;5.30;;;;;;;23.58;100.00;100893.21;110378;1235;60167;-72
2023/07/07 09:18:21;;;;;;;7.60;6.00;;;;;;;23.64;100.00;100884.59;110367;1236;73705;-71
2023/07/07 09:20:58;;;;;;;7.20;6.00;;;;;;;23.68;100.00;100889.81;110362;1236;61924;-71
2023/07/07 09:23:34;;;;;;;6.70;5.60;;;;;;;23.53;100.00;100889.11;110352;1234;59798;-70
2023/07/07 09:26:19;;;;;;;6.00;5.30;;;;;;;23.59;100.00;100891.37;110475;1235;72284;-73
2023/07/07 09:28:53;;;;;;;8.90;5.50;;;;;;;23.76;100.00;100885.42;110480;1235;58025;-71
2023/07/07 09:31:41;;;;;;;7.60;5.90;;;;;;;24.00;100.00;100885.23;110273;1233;60215;-71
2023/07/07 09:34:12;;;;;;;7.10;5.70;;;;;;;24.02;100.00;100881.64;110503;1234;71122;-72
2023/07/07 09:37:10;;;;;;;7.40;5.70;;;;;;;24.12;100.00;100883.77;110352;1234;61660;-71
2023/07/07 09:40:49;;;;;;;6.80;5.70;;;;;;;24.25;100.00;100880.27;110488;1235;60390;-71
2023/07/07 09:43:43;;;;;;;6.90;5.30;;;;;;;24.21;100.00;100874.54;109586;1241;62686;-72
2023/07/07 09:46:34;;;;;;;6.00;5.30;;;;;;;24.28;100.00;100874.75;109862;1241;57414;-72
2023/07/07 09:49:28;;;;;;;6.40;5.50;;;;;;;24.40;100.00;100872.50;110352;1237;57739;-71
2023/07/07 09:52:30;;;;;;;9.20;5.70;;;;;;;24.35;100.00;100870.48;110318;1234;73516;-70
2023/07/07 09:55:08;;;;;;;6.40;5.60;;;;;;;24.64;100.00;100871.02;110308;1236;61020;-71
2023/07/07 09:57:49;;;;;;;6.80;5.20;;;;;;;25.00;100.00;100863.95;110359;1235;70538;-75
2023/07/07 10:00:20;;;;;;;5.30;4.80;;;;;;;24.98;100.00;100861.23;110370;1235;64299;-75
2023/07/07 10:03:37;;;;;;;5.90;5.00;;;;;;;25.05;100.00;100859.54;110410;1234;57452;-75
2023/07/07 10:06:34;;;;;;;4.70;4.20;;;;;;;25.27;100.00;100858.03;110431;1233;57383;-75
2023/07/07 10:09:04;;;;;;;4.90;4.10;;;;;;;25.35;100.00;100851.29;110427;1234;63198;-73
2023/07/07 10:11:38;;;;;;;5.90;3.90;;;;;;;25.37;100.00;100846.39;110379;1235;72251;-74
2023/07/07 10:14:30;;;;;;;8.40;4.30;;;;;;;25.18;100.00;100848.75;110410;1233;70957;-75
2023/07/07 10:17:22;;;;;;;5.10;3.50;;;;;;;25.21;100.00;100849.13;110381;1233;62842;-74
2023/07/07 10:20:00;;;;;;;4.20;3.20;;;;;;;25.40;100.00;100860.63;110239;1236;62293;-74
2023/07/07 10:22:30;;;;;;;5.10;4.10;;;;;;;25.44;100.00;100848.17;110269;1233;57884;-73
2023/07/07 10:25:03;;;;;;;5.70;4.00;;;;;;;25.56;100.00;100846.94;110446;1235;73530;-78
2023/07/07 10:27:34;;;;;;;5.50;4.20;;;;;;;25.68;100.00;100848.91;110432;1235;62811;-72
2023/07/07 10:30:06;;;;;;;7.60;4.10;;;;;;;25.79;100.00;100838.26;110375;1234;70397;-78
2023/07/07 10:32:40;;;;;;;6.00;3.50;;;;;;;25.96;100.00;100839.72;110287;1234;64689;-72
2023/07/07 10:35:15;;;;;;;4.20;3.50;;;;;;;26.24;100.00;100841.52;110256;1238;57559;-73
2023/07/07 10:37:46;;;;;;;4.50;3.30;;;;;;;26.50;98.81;100842.06;110463;1234;57650;-72
2023/07/07 10:40:27;;;;;;;4.00;3.60;;;;;;;26.50;96.28;100845.11;110345;1234;65703;-73
2023/07/07 10:43:18;;;;;;;4.00;3.40;;;;;;;26.62;95.73;100843.50;110294;1234;71945;-73
2023/07/07 10:45:48;;;;;;;4.90;3.60;;;;;;;26.90;95.32;100839.95;110209;1234;60768;-73
2023/07/07 10:48:17;;;;;;;7.70;3.90;;;;;;;27.28;95.07;100836.73;110232;1238;73824;-71
2023/07/07 10:51:33;;;;;;;5.10;3.60;;;;;;;27.54;92.86;100841.42;110356;1237;60844;-72
2023/07/07 10:54:17;;;;;;;4.10;3.70;;;;;;;27.64;91.65;100836.80;110192;1233;61943;-73
2023/07/07 10:56:56;;;;;;;5.60;3.30;;;;;;;27.54;89.97;100836.43;110468;1234;63293;-71
2023/07/07 10:59:36;;;;;;;4.90;3.50;;;;;;;27.88;88.69;100841.31;110188;1234;72151;-71
2023/07/07 11:02:44;;;;;;;5.40;3.80;;;;;;;28.09;86.67;100835.63;110332;1234;60221;-71
2023/07/07 11:05:28;;;;;;;5.90;3.60;;;;;;;28.17;84.26;100845.17;110368;1234;63830;-71
2023/07/07 11:08:17;;;;;;;4.00;3.60;;;;;;;28.20;85.48;100845.59;110494;1234;61780;-71
2023/07/07 11:10:58;;;;;;;5.20;4.40;;;;;;;28.74;82.91;100835.13;110368;1234;60555;-72
2023/07/07 11:14:07;;;;;;;6.50;3.40;;;;;;;28.40;84.38;100833.67;110456;1233;74299;-72
2023/07/07 11:17:23;;;;;;;4.00;3.40;;;;;;;28.11;84.59;100833.48;110509;1234;61961;-71
2023/07/07 11:20:08;;;;;;;4.00;3.40;;;;;;;28.07;84.46;100851.07;110403;1233;69269;-71
2023/07/07 11:22:59;;;;;;;4.10;3.70;;;;;;;28.10;83.66;100840.38;110373;1234;62710;-70
2023/07/07 11:26:08;;;;;;;5.90;3.00;;;;;;;28.28;84.40;100832.58;110442;1235;57708;-70
2023/07/07 11:29:44;;;;;;;5.60;3.40;;;;;;;28.53;81.18;100831.66;110437;1234;61064;-70
2023/07/07 11:32:32;;;;;;;5.50;3.30;;;;;;;29.10;73.56;100826.16;110381;1234;73413;-69
2023/07/07 11:35:47;;;;;;;3.90;3.30;;;;;;;28.69;74.15;100826.86;110400;1233;62417;-70